createdAt,value
2023-03-17T00:00:30.373Z,90.43
2023-03-17T00:03:49.559Z,90.57
2023-03-17T00:07:00.982Z,90.75
2023-03-17T00:10:19.629Z,90.20
2023-03-17T00:13:33.467Z,90.21
2023-03-17T00:16:48.679Z,91.26
2023-03-17T00:20:00.701Z,90.84
2023-03-17T00:23:18.505Z,92.60
2023-03-17T00:29:31.759Z,92.43
2023-03-17T00:32:45.693Z,92.77
2023-03-17T00:35:59.551Z,93.62
2023-03-17T00:39:19.432Z,93.03
2023-03-17T00:42:31.721Z,92.11
2023-03-17T00:45:44.646Z,91.63
2023-03-17T00:48:57.013Z,91.84
2023-03-17T00:52:09.722Z,92.02
2023-03-17T00:55:22.811Z,92.38
2023-03-17T00:58:37.673Z,92.86
2023-03-17T01:01:50.215Z,93.47
2023-03-17T01:05:06.726Z,93.87
2023-03-17T01:08:17.920Z,94.48
2023-03-17T01:11:29.980Z,94.66
2023-03-17T01:14:42.086Z,95.11
2023-03-17T01:17:55.996Z,95.52
2023-03-17T01:21:09.666Z,95.29
2023-03-17T01:24:21.973Z,95.88
2023-03-17T01:27:36.585Z,96.06
2023-03-17T01:30:50.384Z,97.94
2023-03-17T01:34:04.338Z,97.85
2023-03-17T01:37:17.253Z,97.34
2023-03-17T01:40:40.377Z,96.70
2023-03-17T01:43:55.224Z,96.78
2023-03-17T01:47:07.248Z,98.47
2023-03-17T01:50:19.812Z,98.99
2023-03-17T01:53:32.656Z,99.76
2023-03-17T01:56:49.231Z,98.89
2023-03-17T02:00:05.987Z,98.48
2023-03-17T02:03:20.618Z,97.65
2023-03-17T02:06:34.926Z,97.90
2023-03-17T02:09:48.694Z,97.88
2023-03-17T02:13:05.954Z,98.53
2023-03-17T02:16:21.995Z,98.73
2023-03-17T02:19:35.380Z,98.53
2023-03-17T02:22:47.425Z,98.18
2023-03-17T02:26:01.108Z,98.47
2023-03-17T02:29:13.220Z,98.75
2023-03-17T02:32:26.922Z,99.16
2023-03-17T02:35:41.612Z,99.00
2023-03-17T02:38:54.369Z,98.60
2023-03-17T02:42:07.175Z,98.81
2023-03-17T02:45:20.747Z,98.76
2023-03-17T02:48:34.240Z,98.97
2023-03-17T02:51:46.187Z,100.00
2023-03-17T02:54:58.647Z,100.00
2023-03-17T02:58:10.855Z,99.19
2023-03-17T03:01:23.112Z,98.81
2023-03-17T03:04:36.204Z,98.70
2023-03-17T03:07:48.304Z,99.31
2023-03-17T03:11:02.668Z,100.00
2023-03-17T03:14:15.951Z,100.00
2023-03-17T03:17:28.364Z,100.00
2023-03-17T03:20:40.384Z,100.00
2023-03-17T03:23:52.511Z,100.00
2023-03-17T03:27:04.582Z,100.00
2023-03-17T03:30:20.864Z,100.00
2023-03-17T03:33:34.012Z,100.00
2023-03-17T03:36:46.552Z,100.00
2023-03-17T03:39:59.084Z,100.00
2023-03-17T03:43:22.300Z,100.00
2023-03-17T03:46:26.843Z,100.00
2023-03-17T03:49:38.919Z,100.00
2023-03-17T03:52:51.202Z,100.00
2023-03-17T03:56:04.408Z,100.00
2023-03-17T03:59:16.743Z,100.00
2023-03-17T04:02:28.669Z,100.00
2023-03-17T04:05:41.096Z,100.00
2023-03-17T04:08:53.128Z,100.00
2023-03-17T04:12:04.991Z,100.00
2023-03-17T04:15:24.312Z,100.00
2023-03-17T04:18:36.408Z,100.00
2023-03-17T04:21:49.009Z,100.00
2023-03-17T04:25:01.125Z,100.00
2023-03-17T04:28:14.345Z,100.00
2023-03-17T04:31:26.884Z,100.00
2023-03-17T04:34:39.107Z,100.00
2023-03-17T04:37:51.728Z,100.00
2023-03-17T04:41:04.106Z,100.00
2023-03-17T04:44:18.734Z,100.00
2023-03-17T04:47:31.295Z,100.00
2023-03-17T04:50:43.326Z,100.00
2023-03-17T04:53:54.157Z,100.00
2023-03-17T04:57:09.225Z,100.00
2023-03-17T05:00:26.964Z,100.00
2023-03-17T05:03:39.995Z,100.00
2023-03-17T05:06:52.049Z,100.00
2023-03-17T05:10:04.321Z,100.00
2023-03-17T05:13:16.813Z,100.00
2023-03-17T05:16:29.021Z,100.00
2023-03-17T05:19:41.437Z,100.00
2023-03-17T05:22:53.746Z,100.00
2023-03-17T05:26:06.585Z,100.00
2023-03-17T05:29:19.391Z,100.00
2023-03-17T05:32:32.356Z,100.00
2023-03-17T05:35:44.562Z,100.00
2023-03-17T05:38:56.833Z,100.00
2023-03-17T05:42:09.346Z,100.00
2023-03-17T05:45:22.246Z,100.00
2023-03-17T05:48:35.173Z,100.00
2023-03-17T05:51:47.609Z,100.00
2023-03-17T05:54:59.985Z,100.00
2023-03-17T05:58:13.129Z,100.00
2023-03-17T06:01:25.347Z,100.00
2023-03-17T06:04:38.387Z,100.00
2023-03-17T06:07:54.931Z,100.00
2023-03-17T06:11:05.032Z,98.27
2023-03-17T06:14:17.271Z,95.75
2023-03-17T06:17:29.932Z,94.26
2023-03-17T06:20:42.253Z,91.56
2023-03-17T06:23:54.683Z,89.66
2023-03-17T06:27:06.953Z,87.44
2023-03-17T06:30:21.156Z,84.52
2023-03-17T06:33:34.554Z,84.28
2023-03-17T06:36:46.997Z,83.36
2023-03-17T06:40:01.037Z,80.62
2023-03-17T06:43:13.553Z,78.33
2023-03-17T06:46:25.643Z,80.04
2023-03-17T06:49:38.327Z,77.58
2023-03-17T06:52:50.435Z,77.46
2023-03-17T06:56:03.203Z,76.31
2023-03-17T06:59:15.805Z,74.28
2023-03-17T07:02:28.145Z,74.12
2023-03-17T07:05:40.527Z,73.36
2023-03-17T07:08:53.664Z,72.38
2023-03-17T07:12:06.710Z,70.81
2023-03-17T07:15:22.826Z,70.31
2023-03-17T07:18:36.162Z,69.81
2023-03-17T07:21:50.395Z,69.44
2023-03-17T07:25:08.631Z,68.73
2023-03-17T07:28:22.674Z,67.68
2023-03-17T07:31:37.546Z,66.92
2023-03-17T07:34:50.492Z,66.49
2023-03-17T07:38:05.364Z,65.18
2023-03-17T07:41:17.506Z,64.46
2023-03-17T07:44:30.461Z,65.02
2023-03-17T07:47:42.843Z,65.81
2023-03-17T07:50:54.919Z,63.78
2023-03-17T07:54:08.255Z,61.98
2023-03-17T07:57:20.930Z,60.06
2023-03-17T08:00:34.920Z,57.81
2023-03-17T08:03:48.084Z,57.03
2023-03-17T08:07:01.718Z,54.93
2023-03-17T08:10:18.498Z,53.49
2023-03-17T08:13:30.701Z,52.37
2023-03-17T08:16:43.059Z,49.51
2023-03-17T08:19:55.170Z,45.29
2023-03-17T08:23:07.602Z,39.70
2023-03-17T08:26:20.774Z,37.33
2023-03-17T08:29:33.773Z,38.25
2023-03-17T08:32:46.513Z,35.30
2023-03-17T08:35:59.255Z,34.03
2023-03-17T08:39:11.932Z,32.70
2023-03-17T08:42:24.055Z,32.59
2023-03-17T08:45:37.032Z,33.72
2023-03-17T08:48:51.078Z,32.14
2023-03-17T08:52:03.591Z,32.99
2023-03-17T08:55:17.964Z,32.98
2023-03-17T08:58:30.717Z,32.85
2023-03-17T09:01:45.063Z,31.60
2023-03-17T09:04:57.973Z,31.60
2023-03-17T09:08:10.115Z,31.36
2023-03-17T09:11:24.715Z,31.32
2023-03-17T09:14:43.532Z,30.04
2023-03-17T09:17:51.035Z,30.95
2023-03-17T09:21:03.724Z,29.92
2023-03-17T09:24:16.678Z,30.19
2023-03-17T09:27:28.813Z,28.25
2023-03-17T09:30:42.670Z,29.36
2023-03-17T09:33:56.633Z,28.42
2023-03-17T09:37:10.104Z,26.63
2023-03-17T09:40:28.541Z,26.79
2023-03-17T09:43:46.846Z,26.05
2023-03-17T09:47:07.014Z,25.47
2023-03-17T09:50:23.937Z,27.30
2023-03-17T09:53:40.088Z,27.02
2023-03-17T09:56:57.897Z,27.69
2023-03-17T10:00:19.131Z,27.96
2023-03-17T10:03:32.663Z,25.47
2023-03-17T10:06:48.625Z,27.97
2023-03-17T10:10:08.856Z,28.06
2023-03-17T10:13:35.824Z,26.36
2023-03-17T10:16:54.748Z,28.77
2023-03-17T10:20:11.733Z,26.84
2023-03-17T10:23:28.130Z,30.70
2023-03-17T10:26:46.222Z,30.90
2023-03-17T10:29:58.409Z,31.15
2023-03-17T10:33:12.547Z,29.91
2023-03-17T10:36:37.948Z,30.01
2023-03-17T10:39:56.283Z,30.09
2023-03-17T10:43:15.751Z,29.72
2023-03-17T10:46:31.455Z,30.60
2023-03-17T10:49:44.567Z,28.57
2023-03-17T10:53:03.531Z,28.38
2023-03-17T10:56:25.910Z,29.30
2023-03-17T10:59:44.921Z,31.55
2023-03-17T11:03:01.843Z,30.16
2023-03-17T11:06:16.991Z,30.58
2023-03-17T11:09:29.539Z,28.30
2023-03-17T11:12:46.458Z,26.45
2023-03-17T11:16:01.189Z,26.91
2023-03-17T11:19:18.866Z,28.83
2023-03-17T11:22:38.228Z,27.74
2023-03-17T11:25:57.090Z,29.16
2023-03-17T11:29:29.222Z,28.83
2023-03-17T11:32:46.089Z,31.23
2023-03-17T11:36:00.149Z,29.95
2023-03-17T11:39:19.086Z,30.87
2023-03-17T11:42:37.475Z,28.36
2023-03-17T11:45:55.079Z,28.74
2023-03-17T11:49:14.972Z,28.52
2023-03-17T11:52:32.703Z,28.92
2023-03-17T11:55:51.802Z,30.26
2023-03-17T11:59:08.855Z,29.29
2023-03-17T12:02:32.669Z,30.48
2023-03-17T12:05:47.362Z,31.08
2023-03-17T12:09:06.544Z,31.52
2023-03-17T12:12:22.349Z,30.72
2023-03-17T12:15:40.447Z,30.29
2023-03-17T12:19:00.849Z,29.83
2023-03-17T12:22:21.333Z,30.26
2023-03-17T12:25:37.528Z,30.57
2023-03-17T12:28:57.438Z,30.13
2023-03-17T12:32:17.388Z,29.81
2023-03-17T12:35:37.112Z,31.13
2023-03-17T12:38:57.315Z,33.71
2023-03-17T12:42:21.076Z,31.39
2023-03-17T12:45:57.496Z,30.73
2023-03-17T12:49:54.303Z,30.85
2023-03-17T12:53:31.045Z,31.93
2023-03-17T12:56:49.015Z,32.98
2023-03-17T13:00:10.329Z,32.19
2023-03-17T13:03:30.695Z,31.00
2023-03-17T13:06:49.196Z,33.26
2023-03-17T13:10:44.815Z,33.27
2023-03-17T13:14:23.351Z,33.50
2023-03-17T13:17:41.530Z,31.94
2023-03-17T13:21:13.896Z,33.61
2023-03-17T13:24:51.957Z,31.70
2023-03-17T13:28:28.036Z,31.62
2023-03-17T13:31:44.517Z,33.68
2023-03-17T13:34:59.624Z,32.48
2023-03-17T13:38:36.817Z,32.29
2023-03-17T13:42:30.235Z,34.54
2023-03-17T13:45:48.324Z,31.52
2023-03-17T13:49:01.746Z,32.22
2023-03-17T13:52:19.540Z,32.94
2023-03-17T13:55:46.125Z,33.95
2023-03-17T13:59:05.959Z,31.81
2023-03-17T14:02:24.913Z,33.07
2023-03-17T14:05:40.707Z,32.27
2023-03-17T14:08:58.021Z,33.29
2023-03-17T14:12:17.901Z,34.87
2023-03-17T14:15:35.269Z,33.71
2023-03-17T14:18:50.106Z,33.45
2023-03-17T14:22:08.858Z,33.27
2023-03-17T14:25:26.212Z,34.67
2023-03-17T14:28:40.672Z,34.44
2023-03-17T14:32:00.599Z,35.16
2023-03-17T14:35:19.003Z,32.55
2023-03-17T14:38:35.013Z,32.81
2023-03-17T14:41:47.033Z,32.50
2023-03-17T14:45:08.868Z,31.84
2023-03-17T14:48:25.418Z,33.31
2023-03-17T14:51:40.367Z,31.25
2023-03-17T14:54:56.406Z,32.22
2023-03-17T14:58:16.554Z,32.76
2023-03-17T15:01:39.720Z,32.49
2023-03-17T15:05:00.416Z,31.38
2023-03-17T15:08:46.297Z,31.73
2023-03-17T15:12:01.084Z,31.19
2023-03-17T15:15:25.912Z,31.80
2023-03-17T15:18:38.033Z,31.80
2023-03-17T15:21:50.748Z,31.66
2023-03-17T15:25:21.068Z,32.81
2023-03-17T15:28:37.016Z,32.24
2023-03-17T15:31:49.243Z,33.65
2023-03-17T15:35:05.096Z,33.57
2023-03-17T15:38:19.029Z,31.47
2023-03-17T15:41:31.370Z,32.12
2023-03-17T15:44:43.720Z,33.11
2023-03-17T15:47:56.360Z,33.54
2023-03-17T15:51:10.360Z,31.67
2023-03-17T15:54:23.033Z,34.26
2023-03-17T15:57:35.281Z,33.37
2023-03-17T16:00:49.935Z,35.08
2023-03-17T16:04:02.129Z,34.32
2023-03-17T16:07:18.982Z,34.28
2023-03-17T16:10:34.626Z,34.33
2023-03-17T16:13:46.906Z,37.32
2023-03-17T16:16:59.108Z,38.95
2023-03-17T16:20:16.898Z,39.55
2023-03-17T16:23:31.944Z,39.07
2023-03-17T16:26:45.087Z,41.43
2023-03-17T16:29:57.512Z,43.08
2023-03-17T16:33:18.470Z,41.46
2023-03-17T16:36:32.279Z,39.54
2023-03-17T16:39:45.289Z,42.48
2023-03-17T16:42:59.532Z,42.07
2023-03-17T16:46:14.475Z,42.31
2023-03-17T16:49:27.597Z,40.99
2023-03-17T16:52:40.054Z,41.72
2023-03-17T16:55:53.192Z,43.36
2023-03-17T16:59:06.064Z,42.98
2023-03-17T17:02:23.523Z,44.46
2023-03-17T17:05:37.073Z,41.77
2023-03-17T17:08:51.695Z,42.58
2023-03-17T17:12:04.014Z,43.84
2023-03-17T17:15:21.140Z,43.97
2023-03-17T17:18:35.410Z,43.87
2023-03-17T17:21:48.825Z,43.55
2023-03-17T17:25:01.389Z,47.19
2023-03-17T17:28:14.683Z,45.81
2023-03-17T17:31:27.111Z,45.78
2023-03-17T17:34:39.944Z,47.17
2023-03-17T17:37:52.428Z,48.98
2023-03-17T17:41:09.137Z,49.97
2023-03-17T17:44:21.278Z,48.28
2023-03-17T17:47:34.602Z,52.02
2023-03-17T17:50:47.008Z,50.58
2023-03-17T17:53:59.276Z,50.24
2023-03-17T17:57:12.108Z,53.52
2023-03-17T18:00:26.282Z,50.56
2023-03-17T18:03:40.507Z,52.45
2023-03-17T18:06:53.618Z,52.83
2023-03-17T18:10:06.184Z,52.33
2023-03-17T18:13:18.579Z,53.82
2023-03-17T18:16:31.638Z,57.46
2023-03-17T18:19:44.217Z,55.32
2023-03-17T18:22:56.945Z,56.01
2023-03-17T18:26:10.850Z,55.14
2023-03-17T18:29:23.473Z,53.47
2023-03-17T18:32:36.564Z,53.67
2023-03-17T18:35:51.146Z,56.10
2023-03-17T18:39:04.430Z,55.15
2023-03-17T18:42:17.627Z,54.26
2023-03-17T18:45:29.922Z,57.74
2023-03-17T18:48:42.341Z,57.72
2023-03-17T18:51:54.549Z,55.17
2023-03-17T18:55:07.477Z,55.16
2023-03-17T18:58:19.589Z,56.36
2023-03-17T19:01:32.454Z,56.30
2023-03-17T19:04:47.178Z,57.09
2023-03-17T19:07:59.449Z,56.39
2023-03-17T19:11:13.659Z,60.47
2023-03-17T19:14:25.908Z,61.51
2023-03-17T19:17:39.166Z,63.80
2023-03-17T19:20:51.507Z,61.25
2023-03-17T19:24:06.377Z,63.81
2023-03-17T19:27:18.576Z,64.58
2023-03-17T19:30:31.674Z,66.03
2023-03-17T19:33:44.666Z,64.25
2023-03-17T19:36:57.136Z,63.46
2023-03-17T19:40:13.456Z,66.34
2023-03-17T19:43:39.394Z,65.27
2023-03-17T19:46:41.526Z,67.71
2023-03-17T19:49:54.056Z,66.28
2023-03-17T19:53:06.452Z,67.66
2023-03-17T19:56:18.652Z,67.62
2023-03-17T19:59:31.183Z,68.18
2023-03-17T20:02:43.588Z,69.61
2023-03-17T20:05:57.542Z,67.41
2023-03-17T20:09:10.748Z,69.65
2023-03-17T20:12:22.901Z,69.29
2023-03-17T20:15:35.531Z,67.56
2023-03-17T20:18:47.902Z,70.33
2023-03-17T20:22:00.527Z,66.56
2023-03-17T20:25:15.649Z,70.21
2023-03-17T20:28:30.073Z,69.56
2023-03-17T20:31:43.879Z,70.89
2023-03-17T20:34:57.114Z,69.40
2023-03-17T20:38:10.086Z,71.36
2023-03-17T20:41:24.793Z,70.22
2023-03-17T20:44:36.930Z,72.00
2023-03-17T20:47:49.419Z,67.54
2023-03-17T20:51:04.042Z,67.41
2023-03-17T20:54:17.960Z,67.31
2023-03-17T20:57:30.447Z,67.08
2023-03-17T21:00:43.067Z,68.01
2023-03-17T21:03:56.628Z,67.92
2023-03-17T21:07:09.148Z,69.54
2023-03-17T21:10:22.619Z,68.25
2023-03-17T21:13:35.412Z,69.50
2023-03-17T21:16:48.556Z,71.76
2023-03-17T21:20:00.915Z,71.20
2023-03-17T21:23:13.443Z,71.21
2023-03-17T21:26:26.350Z,72.21
2023-03-17T21:29:40.508Z,72.56
2023-03-17T21:32:53.767Z,72.25
2023-03-17T21:36:06.645Z,73.27
2023-03-17T21:39:21.332Z,73.31
2023-03-17T21:42:33.844Z,72.72
2023-03-17T21:45:46.893Z,74.51
2023-03-17T21:48:59.400Z,72.42
2023-03-17T21:52:12.704Z,72.06
2023-03-17T21:55:25.474Z,73.10
2023-03-17T21:58:37.694Z,73.34
2023-03-17T22:01:52.205Z,75.05
2023-03-17T22:05:04.719Z,75.23
2023-03-17T22:08:17.034Z,75.09
2023-03-17T22:11:29.529Z,75.28
2023-03-17T22:14:42.203Z,74.93
2023-03-17T22:17:54.474Z,75.45
2023-03-17T22:21:08.242Z,76.77
2023-03-17T22:24:21.484Z,77.54
2023-03-17T22:27:33.702Z,78.06
2023-03-17T22:30:46.358Z,77.91
2023-03-17T22:34:02.241Z,76.48
2023-03-17T22:37:18.444Z,76.34
2023-03-17T22:40:33.071Z,78.17
2023-03-17T22:43:46.833Z,78.30
2023-03-17T22:46:59.359Z,77.76
2023-03-17T22:50:13.503Z,78.13
2023-03-17T22:53:25.769Z,77.35
2023-03-17T22:56:37.938Z,78.13
2023-03-17T22:59:52.058Z,78.29
2023-03-17T23:03:04.098Z,79.49
2023-03-17T23:06:19.582Z,79.56
2023-03-17T23:09:31.741Z,80.13
2023-03-17T23:12:44.004Z,80.96
2023-03-17T23:15:56.561Z,80.79
2023-03-17T23:19:08.738Z,80.66
2023-03-17T23:22:21.617Z,80.69
2023-03-17T23:25:34.043Z,79.79
2023-03-17T23:28:46.557Z,80.21
2023-03-17T23:31:58.825Z,80.29
2023-03-17T23:35:12.724Z,81.17
2023-03-17T23:38:25.834Z,81.16
2023-03-17T23:41:37.901Z,81.33
2023-03-17T23:44:50.453Z,82.20
2023-03-17T23:48:03.178Z,81.75
2023-03-17T23:51:16.275Z,82.69
2023-03-17T23:54:28.848Z,82.55
2023-03-17T23:57:41.624Z,83.44
